sensor_id;sensor_type;location;lat;lon;timestamp;temperature;humidity
23081;DHT22;72373;50.562;8.498;2023-12-14T00:01:50;5.00;99.90
23081;DHT22;72373;50.562;8.498;2023-12-14T00:04:16;5.00;99.90
23081;DHT22;72373;50.562;8.498;2023-12-14T00:06:41;4.90;99.90
23081;DHT22;72373;50.562;8.498;2023-12-14T00:09:07;4.90;99.90
23081;DHT22;72373;50.562;8.498;2023-12-14T00:11:38;4.90;99.90
23081;DHT22;72373;50.562;8.498;2023-12-14T00:14:04;4.90;99.90
23081;DHT22;72373;50.562;8.498;2023-12-14T00:16:30;4.90;99.90
23081;DHT22;72373;50.562;8.498;2023-12-14T00:18:55;5.00;99.90
23081;DHT22;72373;50.562;8.498;2023-12-14T00:21:21;4.90;99.90
23081;DHT22;72373;50.562;8.498;2023-12-14T00:23:46;5.00;99.90
23081;DHT22;72373;50.562;8.498;2023-12-14T00:26:12;5.00;99.90
23081;DHT22;72373;50.562;8.498;2023-12-14T00:28:38;5.00;99.90
23081;DHT22;72373;50.562;8.498;2023-12-14T00:31:03;5.00;99.90
23081;DHT22;72373;50.562;8.498;2023-12-14T00:33:29;5.10;99.90
23081;DHT22;72373;50.562;8.498;2023-12-14T00:35:54;5.00;99.90
23081;DHT22;72373;50.562;8.498;2023-12-14T00:38:20;5.00;99.90
23081;DHT22;72373;50.562;8.498;2023-12-14T00:40:45;5.00;99.90
23081;DHT22;72373;50.562;8.498;2023-12-14T00:43:11;4.90;99.90
23081;DHT22;72373;50.562;8.498;2023-12-14T00:45:36;4.90;99.90
23081;DHT22;72373;50.562;8.498;2023-12-14T00:48:02;5.00;99.90
23081;DHT22;72373;50.562;8.498;2023-12-14T00:50:28;5.10;99.90
23081;DHT22;72373;50.562;8.498;2023-12-14T00:52:53;5.00;99.90
23081;DHT22;72373;50.562;8.498;2023-12-14T00:55:19;5.00;99.90
23081;DHT22;72373;50.562;8.498;2023-12-14T00:57:44;5.00;99.90
23081;DHT22;72373;50.562;8.498;2023-12-14T01:00:10;5.00;99.90
23081;DHT22;72373;50.562;8.498;2023-12-14T01:02:36;5.00;99.90
23081;DHT22;72373;50.562;8.498;2023-12-14T01:05:02;5.00;99.90
23081;DHT22;72373;50.562;8.498;2023-12-14T01:07:28;5.00;99.90
23081;DHT22;72373;50.562;8.498;2023-12-14T01:09:53;5.00;99.90
23081;DHT22;72373;50.562;8.498;2023-12-14T01:12:19;5.00;99.90
23081;DHT22;72373;50.562;8.498;2023-12-14T01:14:44;4.90;99.90
23081;DHT22;72373;50.562;8.498;2023-12-14T01:17:10;5.00;99.90
23081;DHT22;72373;50.562;8.498;2023-12-14T01:19:35;4.90;99.90
23081;DHT22;72373;50.562;8.498;2023-12-14T01:22:00;5.00;99.90
23081;DHT22;72373;50.562;8.498;2023-12-14T01:24:26;4.90;99.90
23081;DHT22;72373;50.562;8.498;2023-12-14T01:26:51;4.90;99.90
23081;DHT22;72373;50.562;8.498;2023-12-14T01:29:17;4.90;99.90
23081;DHT22;72373;50.562;8.498;2023-12-14T01:31:43;5.00;99.90
23081;DHT22;72373;50.562;8.498;2023-12-14T01:34:08;5.00;99.90
23081;DHT22;72373;50.562;8.498;2023-12-14T01:36:35;4.90;99.90
23081;DHT22;72373;50.562;8.498;2023-12-14T01:39:01;4.90;99.90
23081;DHT22;72373;50.562;8.498;2023-12-14T01:41:26;4.90;99.90
23081;DHT22;72373;50.562;8.498;2023-12-14T01:43:52;4.90;99.90
23081;DHT22;72373;50.562;8.498;2023-12-14T01:46:17;4.80;99.90
23081;DHT22;72373;50.562;8.498;2023-12-14T01:48:43;4.80;99.90
23081;DHT22;72373;50.562;8.498;2023-12-14T01:51:08;4.80;99.90
23081;DHT22;72373;50.562;8.498;2023-12-14T01:53:34;4.80;99.90
23081;DHT22;72373;50.562;8.498;2023-12-14T01:55:59;4.80;99.90
23081;DHT22;72373;50.562;8.498;2023-12-14T01:58:25;4.80;99.90
23081;DHT22;72373;50.562;8.498;2023-12-14T02:03:51;4.80;99.90
23081;DHT22;72373;50.562;8.498;2023-12-14T02:06:17;4.90;99.90
23081;DHT22;72373;50.562;8.498;2023-12-14T02:08:43;4.90;99.90
23081;DHT22;72373;50.562;8.498;2023-12-14T02:11:09;4.90;99.90
23081;DHT22;72373;50.562;8.498;2023-12-14T02:13:34;4.90;99.90
23081;DHT22;72373;50.562;8.498;2023-12-14T02:16:00;4.80;99.90
23081;DHT22;72373;50.562;8.498;2023-12-14T02:18:25;4.80;99.90
23081;DHT22;72373;50.562;8.498;2023-12-14T02:20:51;4.90;99.90
23081;DHT22;72373;50.562;8.498;2023-12-14T02:23:17;4.90;99.90
23081;DHT22;72373;50.562;8.498;2023-12-14T02:25:42;4.80;99.90
23081;DHT22;72373;50.562;8.498;2023-12-14T02:28:08;4.80;99.90
23081;DHT22;72373;50.562;8.498;2023-12-14T02:30:33;4.60;99.90
23081;DHT22;72373;50.562;8.498;2023-12-14T02:32:59;4.80;99.90
23081;DHT22;72373;50.562;8.498;2023-12-14T02:35:24;4.90;99.90
23081;DHT22;72373;50.562;8.498;2023-12-14T02:37:50;4.80;99.90
23081;DHT22;72373;50.562;8.498;2023-12-14T02:40:16;4.80;99.90
23081;DHT22;72373;50.562;8.498;2023-12-14T02:42:41;4.70;99.90
23081;DHT22;72373;50.562;8.498;2023-12-14T02:45:07;4.80;99.90
23081;DHT22;72373;50.562;8.498;2023-12-14T02:47:33;4.80;99.90
23081;DHT22;72373;50.562;8.498;2023-12-14T02:49:59;4.80;99.90
23081;DHT22;72373;50.562;8.498;2023-12-14T02:52:25;4.80;99.90
23081;DHT22;72373;50.562;8.498;2023-12-14T02:54:50;4.80;99.90
23081;DHT22;72373;50.562;8.498;2023-12-14T02:57:16;4.80;99.90
23081;DHT22;72373;50.562;8.498;2023-12-14T02:59:41;4.80;99.90
23081;DHT22;72373;50.562;8.498;2023-12-14T03:02:07;4.80;99.90
23081;DHT22;72373;50.562;8.498;2023-12-14T03:04:32;4.70;99.90
23081;DHT22;72373;50.562;8.498;2023-12-14T03:06:58;4.70;99.90
23081;DHT22;72373;50.562;8.498;2023-12-14T03:09:28;4.70;99.90
23081;DHT22;72373;50.562;8.498;2023-12-14T03:11:53;4.70;99.90
23081;DHT22;72373;50.562;8.498;2023-12-14T03:14:19;4.70;99.90
23081;DHT22;72373;50.562;8.498;2023-12-14T03:16:44;4.70;99.90
23081;DHT22;72373;50.562;8.498;2023-12-14T03:19:10;4.70;99.90
23081;DHT22;72373;50.562;8.498;2023-12-14T03:21:35;4.70;99.90
23081;DHT22;72373;50.562;8.498;2023-12-14T03:24:01;4.70;99.90
23081;DHT22;72373;50.562;8.498;2023-12-14T03:26:26;4.70;99.90
23081;DHT22;72373;50.562;8.498;2023-12-14T03:28:52;4.70;99.90
23081;DHT22;72373;50.562;8.498;2023-12-14T03:31:17;4.70;99.90
23081;DHT22;72373;50.562;8.498;2023-12-14T03:33:43;4.70;99.90
23081;DHT22;72373;50.562;8.498;2023-12-14T03:36:09;4.60;99.90
23081;DHT22;72373;50.562;8.498;2023-12-14T03:38:34;4.60;99.90
23081;DHT22;72373;50.562;8.498;2023-12-14T03:41:00;4.50;99.90
23081;DHT22;72373;50.562;8.498;2023-12-14T03:43:26;4.60;99.90
23081;DHT22;72373;50.562;8.498;2023-12-14T03:45:51;4.60;99.90
23081;DHT22;72373;50.562;8.498;2023-12-14T03:48:17;4.50;99.90
23081;DHT22;72373;50.562;8.498;2023-12-14T03:50:42;4.50;99.90
23081;DHT22;72373;50.562;8.498;2023-12-14T03:53:08;4.50;99.90
23081;DHT22;72373;50.562;8.498;2023-12-14T03:55:34;4.70;99.90
23081;DHT22;72373;50.562;8.498;2023-12-14T03:57:59;4.60;99.90
23081;DHT22;72373;50.562;8.498;2023-12-14T04:00:25;4.70;99.90
23081;DHT22;72373;50.562;8.498;2023-12-14T04:02:50;4.80;99.90
23081;DHT22;72373;50.562;8.498;2023-12-14T04:05:16;4.50;99.90
23081;DHT22;72373;50.562;8.498;2023-12-14T04:07:42;4.50;99.90
23081;DHT22;72373;50.562;8.498;2023-12-14T04:10:08;4.40;99.90
23081;DHT22;72373;50.562;8.498;2023-12-14T04:12:37;4.40;99.90
23081;DHT22;72373;50.562;8.498;2023-12-14T04:15:06;4.30;99.90
23081;DHT22;72373;50.562;8.498;2023-12-14T04:17:33;4.30;99.90
23081;DHT22;72373;50.562;8.498;2023-12-14T04:19:59;4.30;99.90
23081;DHT22;72373;50.562;8.498;2023-12-14T04:22:24;4.40;99.90
23081;DHT22;72373;50.562;8.498;2023-12-14T04:24:50;4.50;99.90
23081;DHT22;72373;50.562;8.498;2023-12-14T04:27:16;4.60;99.90
23081;DHT22;72373;50.562;8.498;2023-12-14T04:29:42;4.50;99.90
23081;DHT22;72373;50.562;8.498;2023-12-14T04:32:08;4.50;99.90
23081;DHT22;72373;50.562;8.498;2023-12-14T04:36:59;4.60;99.90
23081;DHT22;72373;50.562;8.498;2023-12-14T04:39:25;4.50;99.90
23081;DHT22;72373;50.562;8.498;2023-12-14T04:41:52;4.50;99.90
23081;DHT22;72373;50.562;8.498;2023-12-14T04:44:18;4.50;99.90
23081;DHT22;72373;50.562;8.498;2023-12-14T04:46:44;4.50;99.90
23081;DHT22;72373;50.562;8.498;2023-12-14T04:49:10;4.50;99.90
23081;DHT22;72373;50.562;8.498;2023-12-14T04:51:36;4.50;99.90
23081;DHT22;72373;50.562;8.498;2023-12-14T04:54:01;4.60;99.90
23081;DHT22;72373;50.562;8.498;2023-12-14T04:56:27;4.60;99.90
23081;DHT22;72373;50.562;8.498;2023-12-14T04:58:53;4.60;99.90
23081;DHT22;72373;50.562;8.498;2023-12-14T05:01:18;4.60;99.90
23081;DHT22;72373;50.562;8.498;2023-12-14T05:03:44;4.50;99.90
23081;DHT22;72373;50.562;8.498;2023-12-14T05:06:09;4.50;99.90
23081;DHT22;72373;50.562;8.498;2023-12-14T05:08:35;4.40;99.90
23081;DHT22;72373;50.562;8.498;2023-12-14T05:11:01;4.40;99.90
23081;DHT22;72373;50.562;8.498;2023-12-14T05:13:26;4.40;99.90
23081;DHT22;72373;50.562;8.498;2023-12-14T05:18:20;4.50;99.90
23081;DHT22;72373;50.562;8.498;2023-12-14T05:20:46;4.60;99.90
23081;DHT22;72373;50.562;8.498;2023-12-14T05:23:12;4.60;99.90
23081;DHT22;72373;50.562;8.498;2023-12-14T05:25:38;4.60;99.90
23081;DHT22;72373;50.562;8.498;2023-12-14T05:28:04;4.50;99.90
23081;DHT22;72373;50.562;8.498;2023-12-14T05:30:29;4.40;99.90
23081;DHT22;72373;50.562;8.498;2023-12-14T05:32:55;4.60;99.90
23081;DHT22;72373;50.562;8.498;2023-12-14T05:35:20;4.70;99.90
23081;DHT22;72373;50.562;8.498;2023-12-14T05:37:47;4.70;99.90
23081;DHT22;72373;50.562;8.498;2023-12-14T05:40:12;4.80;99.90
23081;DHT22;72373;50.562;8.498;2023-12-14T05:42:38;4.80;99.90
23081;DHT22;72373;50.562;8.498;2023-12-14T05:45:05;4.80;99.90
23081;DHT22;72373;50.562;8.498;2023-12-14T05:47:31;4.80;99.90
23081;DHT22;72373;50.562;8.498;2023-12-14T05:49:58;4.80;99.90
23081;DHT22;72373;50.562;8.498;2023-12-14T05:52:24;4.90;99.90
23081;DHT22;72373;50.562;8.498;2023-12-14T05:54:50;4.90;99.90
23081;DHT22;72373;50.562;8.498;2023-12-14T05:57:15;4.90;99.90
23081;DHT22;72373;50.562;8.498;2023-12-14T06:02:07;4.90;99.90
23081;DHT22;72373;50.562;8.498;2023-12-14T06:04:32;4.90;99.90
23081;DHT22;72373;50.562;8.498;2023-12-14T06:06:58;4.90;99.90
23081;DHT22;72373;50.562;8.498;2023-12-14T06:09:24;4.80;99.90
23081;DHT22;72373;50.562;8.498;2023-12-14T06:11:55;4.90;99.90
23081;DHT22;72373;50.562;8.498;2023-12-14T06:14:20;4.90;99.90
23081;DHT22;72373;50.562;8.498;2023-12-14T06:16:46;4.90;99.90
23081;DHT22;72373;50.562;8.498;2023-12-14T06:19:12;4.90;99.90
23081;DHT22;72373;50.562;8.498;2023-12-14T06:21:37;4.90;99.90
23081;DHT22;72373;50.562;8.498;2023-12-14T06:24:03;4.90;99.90
23081;DHT22;72373;50.562;8.498;2023-12-14T06:26:28;5.00;99.90
23081;DHT22;72373;50.562;8.498;2023-12-14T06:28:54;5.00;99.90
23081;DHT22;72373;50.562;8.498;2023-12-14T06:31:20;5.00;99.90
23081;DHT22;72373;50.562;8.498;2023-12-14T06:33:47;5.10;99.90
23081;DHT22;72373;50.562;8.498;2023-12-14T06:36:15;5.00;99.90
23081;DHT22;72373;50.562;8.498;2023-12-14T06:38:42;5.00;99.90
23081;DHT22;72373;50.562;8.498;2023-12-14T06:41:08;5.00;99.90
23081;DHT22;72373;50.562;8.498;2023-12-14T06:43:34;5.00;99.90
23081;DHT22;72373;50.562;8.498;2023-12-14T06:46:00;5.00;99.90
23081;DHT22;72373;50.562;8.498;2023-12-14T06:48:25;5.00;99.90
23081;DHT22;72373;50.562;8.498;2023-12-14T06:50:51;5.00;99.90
23081;DHT22;72373;50.562;8.498;2023-12-14T06:53:16;4.90;99.90
23081;DHT22;72373;50.562;8.498;2023-12-14T06:55:42;5.00;99.90
23081;DHT22;72373;50.562;8.498;2023-12-14T06:58:08;5.00;99.90
23081;DHT22;72373;50.562;8.498;2023-12-14T07:00:37;5.50;99.90
23081;DHT22;72373;50.562;8.498;2023-12-14T07:03:03;5.10;99.90
23081;DHT22;72373;50.562;8.498;2023-12-14T07:05:28;5.10;99.90
23081;DHT22;72373;50.562;8.498;2023-12-14T07:07:54;5.20;99.90
23081;DHT22;72373;50.562;8.498;2023-12-14T07:10:21;5.30;99.90
23081;DHT22;72373;50.562;8.498;2023-12-14T07:12:47;5.10;99.90
23081;DHT22;72373;50.562;8.498;2023-12-14T07:15:13;5.10;99.90
23081;DHT22;72373;50.562;8.498;2023-12-14T07:17:38;5.10;99.90
23081;DHT22;72373;50.562;8.498;2023-12-14T07:20:04;5.10;99.90
23081;DHT22;72373;50.562;8.498;2023-12-14T07:22:31;5.10;99.90
23081;DHT22;72373;50.562;8.498;2023-12-14T07:24:57;5.00;99.90
23081;DHT22;72373;50.562;8.498;2023-12-14T07:27:22;5.00;99.90
23081;DHT22;72373;50.562;8.498;2023-12-14T07:29:48;5.00;99.90
23081;DHT22;72373;50.562;8.498;2023-12-14T07:32:13;5.10;99.90
23081;DHT22;72373;50.562;8.498;2023-12-14T07:34:39;5.10;99.90
23081;DHT22;72373;50.562;8.498;2023-12-14T07:37:04;5.10;99.90
23081;DHT22;72373;50.562;8.498;2023-12-14T07:39:31;5.20;99.90
23081;DHT22;72373;50.562;8.498;2023-12-14T07:41:57;5.20;99.90
23081;DHT22;72373;50.562;8.498;2023-12-14T07:44:22;5.20;99.90
23081;DHT22;72373;50.562;8.498;2023-12-14T07:46:50;5.30;99.90
23081;DHT22;72373;50.562;8.498;2023-12-14T07:49:16;5.50;99.90
23081;DHT22;72373;50.562;8.498;2023-12-14T07:51:46;5.30;99.90
23081;DHT22;72373;50.562;8.498;2023-12-14T07:54:11;5.30;99.90
23081;DHT22;72373;50.562;8.498;2023-12-14T07:56:37;5.30;99.90
23081;DHT22;72373;50.562;8.498;2023-12-14T07:59:02;5.30;99.90
23081;DHT22;72373;50.562;8.498;2023-12-14T08:01:32;5.40;99.90
23081;DHT22;72373;50.562;8.498;2023-12-14T08:03:57;5.30;99.90
23081;DHT22;72373;50.562;8.498;2023-12-14T08:06:23;5.40;99.90
23081;DHT22;72373;50.562;8.498;2023-12-14T08:08:48;5.40;99.90
23081;DHT22;72373;50.562;8.498;2023-12-14T08:11:14;5.40;99.90
23081;DHT22;72373;50.562;8.498;2023-12-14T08:13:39;5.50;99.90
23081;DHT22;72373;50.562;8.498;2023-12-14T08:16:06;5.50;99.90
23081;DHT22;72373;50.562;8.498;2023-12-14T08:18:32;5.40;99.90
23081;DHT22;72373;50.562;8.498;2023-12-14T08:20:57;5.40;99.90
23081;DHT22;72373;50.562;8.498;2023-12-14T08:23:23;5.50;99.90
23081;DHT22;72373;50.562;8.498;2023-12-14T08:28:16;5.70;99.90
23081;DHT22;72373;50.562;8.498;2023-12-14T08:30:42;5.70;99.90
23081;DHT22;72373;50.562;8.498;2023-12-14T08:33:07;5.60;99.90
23081;DHT22;72373;50.562;8.498;2023-12-14T08:35:33;5.60;99.90
23081;DHT22;72373;50.562;8.498;2023-12-14T08:37:58;5.60;99.90
23081;DHT22;72373;50.562;8.498;2023-12-14T08:40:24;5.50;99.90
23081;DHT22;72373;50.562;8.498;2023-12-14T08:42:49;5.60;99.90
23081;DHT22;72373;50.562;8.498;2023-12-14T08:45:15;5.60;99.90
23081;DHT22;72373;50.562;8.498;2023-12-14T08:47:40;5.70;99.90
23081;DHT22;72373;50.562;8.498;2023-12-14T08:50:06;5.70;99.90
23081;DHT22;72373;50.562;8.498;2023-12-14T08:52:33;5.70;99.90
23081;DHT22;72373;50.562;8.498;2023-12-14T08:54:58;5.80;99.90
23081;DHT22;72373;50.562;8.498;2023-12-14T08:57:24;5.80;99.90
23081;DHT22;72373;50.562;8.498;2023-12-14T08:59:49;5.80;99.90
23081;DHT22;72373;50.562;8.498;2023-12-14T09:02:15;5.80;99.90
23081;DHT22;72373;50.562;8.498;2023-12-14T09:04:41;5.80;99.90
23081;DHT22;72373;50.562;8.498;2023-12-14T09:07:06;5.80;99.90
23081;DHT22;72373;50.562;8.498;2023-12-14T09:09:32;5.80;99.90
23081;DHT22;72373;50.562;8.498;2023-12-14T09:11:57;5.90;99.90
23081;DHT22;72373;50.562;8.498;2023-12-14T09:14:23;5.90;99.90
23081;DHT22;72373;50.562;8.498;2023-12-14T09:16:49;5.90;99.90
23081;DHT22;72373;50.562;8.498;2023-12-14T09:19:14;5.90;99.90
23081;DHT22;72373;50.562;8.498;2023-12-14T09:21:40;5.90;99.90
23081;DHT22;72373;50.562;8.498;2023-12-14T09:24:05;5.90;99.90
23081;DHT22;72373;50.562;8.498;2023-12-14T09:26:31;5.90;99.90
23081;DHT22;72373;50.562;8.498;2023-12-14T09:28:56;5.90;99.90
23081;DHT22;72373;50.562;8.498;2023-12-14T09:31:22;6.00;99.90
23081;DHT22;72373;50.562;8.498;2023-12-14T09:33:47;6.00;99.90
23081;DHT22;72373;50.562;8.498;2023-12-14T09:36:13;6.10;99.90
23081;DHT22;72373;50.562;8.498;2023-12-14T09:38:38;6.10;99.90
23081;DHT22;72373;50.562;8.498;2023-12-14T09:41:04;6.10;99.90
23081;DHT22;72373;50.562;8.498;2023-12-14T09:43:32;6.20;99.90
23081;DHT22;72373;50.562;8.498;2023-12-14T09:45:59;6.30;99.90
23081;DHT22;72373;50.562;8.498;2023-12-14T09:48:25;6.30;99.90
23081;DHT22;72373;50.562;8.498;2023-12-14T09:50:50;6.40;99.90
23081;DHT22;72373;50.562;8.498;2023-12-14T09:55:43;6.40;99.90
23081;DHT22;72373;50.562;8.498;2023-12-14T09:58:09;6.50;99.90
23081;DHT22;72373;50.562;8.498;2023-12-14T10:00:37;6.30;99.90
23081;DHT22;72373;50.562;8.498;2023-12-14T10:03:26;6.60;99.90
23081;DHT22;72373;50.562;8.498;2023-12-14T10:08:19;6.60;99.90
23081;DHT22;72373;50.562;8.498;2023-12-14T10:10:47;6.90;99.90
23081;DHT22;72373;50.562;8.498;2023-12-14T10:13:14;6.70;99.90
23081;DHT22;72373;50.562;8.498;2023-12-14T10:15:41;6.80;99.90
23081;DHT22;72373;50.562;8.498;2023-12-14T10:18:07;6.90;99.90
23081;DHT22;72373;50.562;8.498;2023-12-14T10:20:33;6.80;99.90
23081;DHT22;72373;50.562;8.498;2023-12-14T10:22:59;7.10;99.90
23081;DHT22;72373;50.562;8.498;2023-12-14T10:25:24;7.20;99.90
23081;DHT22;72373;50.562;8.498;2023-12-14T10:27:51;7.30;99.90
23081;DHT22;72373;50.562;8.498;2023-12-14T10:30:18;7.50;99.90
23081;DHT22;72373;50.562;8.498;2023-12-14T10:32:47;7.60;99.90
23081;DHT22;72373;50.562;8.498;2023-12-14T10:35:12;7.80;99.90
23081;DHT22;72373;50.562;8.498;2023-12-14T10:37:38;7.90;99.90
23081;DHT22;72373;50.562;8.498;2023-12-14T10:40:09;8.10;99.90
23081;DHT22;72373;50.562;8.498;2023-12-14T10:42:36;8.30;99.90
23081;DHT22;72373;50.562;8.498;2023-12-14T10:45:02;8.40;99.90
23081;DHT22;72373;50.562;8.498;2023-12-14T10:47:28;8.60;99.90
23081;DHT22;72373;50.562;8.498;2023-12-14T10:49:54;8.70;99.90
23081;DHT22;72373;50.562;8.498;2023-12-14T10:52:21;8.70;99.90
23081;DHT22;72373;50.562;8.498;2023-12-14T10:54:51;8.80;99.90
23081;DHT22;72373;50.562;8.498;2023-12-14T10:57:18;8.80;99.90
23081;DHT22;72373;50.562;8.498;2023-12-14T10:59:43;8.70;99.90
23081;DHT22;72373;50.562;8.498;2023-12-14T11:02:09;8.60;99.90
23081;DHT22;72373;50.562;8.498;2023-12-14T11:04:55;8.60;99.90
23081;DHT22;72373;50.562;8.498;2023-12-14T11:07:44;8.70;99.90
23081;DHT22;72373;50.562;8.498;2023-12-14T11:10:10;8.70;99.90
23081;DHT22;72373;50.562;8.498;2023-12-14T11:12:37;8.60;99.90
23081;DHT22;72373;50.562;8.498;2023-12-14T11:15:03;8.60;99.90
23081;DHT22;72373;50.562;8.498;2023-12-14T11:17:30;8.60;99.90
23081;DHT22;72373;50.562;8.498;2023-12-14T11:19:55;8.70;99.90
23081;DHT22;72373;50.562;8.498;2023-12-14T11:22:27;8.60;99.90
23081;DHT22;72373;50.562;8.498;2023-12-14T11:24:54;8.60;99.90
23081;DHT22;72373;50.562;8.498;2023-12-14T11:27:25;8.60;99.90
23081;DHT22;72373;50.562;8.498;2023-12-14T11:29:53;8.60;99.90
23081;DHT22;72373;50.562;8.498;2023-12-14T11:32:18;8.70;99.90
23081;DHT22;72373;50.562;8.498;2023-12-14T11:34:46;8.70;99.90
23081;DHT22;72373;50.562;8.498;2023-12-14T11:37:12;8.80;99.90
23081;DHT22;72373;50.562;8.498;2023-12-14T11:39:38;8.80;99.90
23081;DHT22;72373;50.562;8.498;2023-12-14T11:42:04;8.80;99.90
23081;DHT22;72373;50.562;8.498;2023-12-14T11:44:32;8.80;99.90
23081;DHT22;72373;50.562;8.498;2023-12-14T11:46:57;8.70;99.90
23081;DHT22;72373;50.562;8.498;2023-12-14T11:49:26;8.60;99.90
23081;DHT22;72373;50.562;8.498;2023-12-14T11:51:54;8.50;99.90
23081;DHT22;72373;50.562;8.498;2023-12-14T11:54:19;8.40;99.90
23081;DHT22;72373;50.562;8.498;2023-12-14T11:56:50;8.40;99.90
23081;DHT22;72373;50.562;8.498;2023-12-14T11:59:17;8.30;99.90
23081;DHT22;72373;50.562;8.498;2023-12-14T12:01:58;8.30;99.90
23081;DHT22;72373;50.562;8.498;2023-12-14T12:04:25;8.30;99.90
23081;DHT22;72373;50.562;8.498;2023-12-14T12:06:59;8.20;99.90
23081;DHT22;72373;50.562;8.498;2023-12-14T12:09:36;8.20;99.90
23081;DHT22;72373;50.562;8.498;2023-12-14T12:12:05;8.10;99.90
23081;DHT22;72373;50.562;8.498;2023-12-14T12:14:30;8.10;99.90
23081;DHT22;72373;50.562;8.498;2023-12-14T12:16:56;8.10;99.90
23081;DHT22;72373;50.562;8.498;2023-12-14T12:21:47;8.20;99.90
23081;DHT22;72373;50.562;8.498;2023-12-14T12:24:13;8.10;99.90
23081;DHT22;72373;50.562;8.498;2023-12-14T12:26:38;8.20;99.90
23081;DHT22;72373;50.562;8.498;2023-12-14T12:29:04;8.20;99.90
23081;DHT22;72373;50.562;8.498;2023-12-14T12:31:31;8.20;99.90
23081;DHT22;72373;50.562;8.498;2023-12-14T12:33:57;8.20;99.90
23081;DHT22;72373;50.562;8.498;2023-12-14T12:36:22;8.10;99.90
23081;DHT22;72373;50.562;8.498;2023-12-14T12:38:48;8.10;99.90
23081;DHT22;72373;50.562;8.498;2023-12-14T12:41:13;7.90;99.90
23081;DHT22;72373;50.562;8.498;2023-12-14T12:43:39;7.80;99.90
23081;DHT22;72373;50.562;8.498;2023-12-14T12:46:04;7.80;99.90
23081;DHT22;72373;50.562;8.498;2023-12-14T12:48:30;7.70;99.90
23081;DHT22;72373;50.562;8.498;2023-12-14T12:50:55;7.70;99.90
23081;DHT22;72373;50.562;8.498;2023-12-14T12:53:21;7.70;99.90
23081;DHT22;72373;50.562;8.498;2023-12-14T12:55:46;7.60;99.90
23081;DHT22;72373;50.562;8.498;2023-12-14T12:58:12;7.50;99.90
23081;DHT22;72373;50.562;8.498;2023-12-14T13:00:40;7.40;99.90
23081;DHT22;72373;50.562;8.498;2023-12-14T13:03:05;7.40;99.90
23081;DHT22;72373;50.562;8.498;2023-12-14T13:05:31;7.50;99.90
23081;DHT22;72373;50.562;8.498;2023-12-14T13:07:56;7.40;99.90
23081;DHT22;72373;50.562;8.498;2023-12-14T13:10:23;7.30;99.90
23081;DHT22;72373;50.562;8.498;2023-12-14T13:12:53;7.30;99.90
23081;DHT22;72373;50.562;8.498;2023-12-14T13:15:19;7.20;99.90
23081;DHT22;72373;50.562;8.498;2023-12-14T13:17:45;7.20;99.90
23081;DHT22;72373;50.562;8.498;2023-12-14T13:20:10;7.20;99.90
23081;DHT22;72373;50.562;8.498;2023-12-14T13:22:36;7.30;99.90
23081;DHT22;72373;50.562;8.498;2023-12-14T13:25:01;7.30;99.90
23081;DHT22;72373;50.562;8.498;2023-12-14T13:27:28;7.40;99.90
23081;DHT22;72373;50.562;8.498;2023-12-14T13:29:55;7.50;99.90
23081;DHT22;72373;50.562;8.498;2023-12-14T13:34:46;7.50;99.90
23081;DHT22;72373;50.562;8.498;2023-12-14T13:37:12;7.60;99.90
23081;DHT22;72373;50.562;8.498;2023-12-14T13:42:05;7.50;99.90
23081;DHT22;72373;50.562;8.498;2023-12-14T13:44:34;7.50;99.90
23081;DHT22;72373;50.562;8.498;2023-12-14T13:47:04;7.50;99.90
23081;DHT22;72373;50.562;8.498;2023-12-14T13:49:29;7.50;99.90
23081;DHT22;72373;50.562;8.498;2023-12-14T13:51:55;7.30;99.90
23081;DHT22;72373;50.562;8.498;2023-12-14T13:54:20;7.20;99.90
23081;DHT22;72373;50.562;8.498;2023-12-14T13:56:46;7.10;99.90
23081;DHT22;72373;50.562;8.498;2023-12-14T13:59:11;7.10;99.90
23081;DHT22;72373;50.562;8.498;2023-12-14T14:01:37;7.00;99.90
23081;DHT22;72373;50.562;8.498;2023-12-14T14:04:03;7.00;99.90
23081;DHT22;72373;50.562;8.498;2023-12-14T14:06:29;7.00;99.90
23081;DHT22;72373;50.562;8.498;2023-12-14T14:08:54;6.90;99.90
23081;DHT22;72373;50.562;8.498;2023-12-14T14:11:21;6.90;99.90
23081;DHT22;72373;50.562;8.498;2023-12-14T14:13:46;6.80;99.90
23081;DHT22;72373;50.562;8.498;2023-12-14T14:16:12;6.70;99.90
23081;DHT22;72373;50.562;8.498;2023-12-14T14:18:37;6.70;99.90
23081;DHT22;72373;50.562;8.498;2023-12-14T14:21:03;6.70;99.90
23081;DHT22;72373;50.562;8.498;2023-12-14T14:23:33;6.60;99.90
23081;DHT22;72373;50.562;8.498;2023-12-14T14:25:58;6.60;99.90
23081;DHT22;72373;50.562;8.498;2023-12-14T14:28:24;6.60;99.90
23081;DHT22;72373;50.562;8.498;2023-12-14T14:30:50;6.50;99.90
23081;DHT22;72373;50.562;8.498;2023-12-14T14:33:16;6.50;99.90
23081;DHT22;72373;50.562;8.498;2023-12-14T14:35:44;6.50;99.90
23081;DHT22;72373;50.562;8.498;2023-12-14T14:38:11;6.40;99.90
23081;DHT22;72373;50.562;8.498;2023-12-14T14:43:03;6.40;99.90
23081;DHT22;72373;50.562;8.498;2023-12-14T14:45:29;6.40;99.90
23081;DHT22;72373;50.562;8.498;2023-12-14T14:47:55;6.40;99.90
23081;DHT22;72373;50.562;8.498;2023-12-14T14:50:21;6.30;99.90
23081;DHT22;72373;50.562;8.498;2023-12-14T14:52:47;6.30;99.90
23081;DHT22;72373;50.562;8.498;2023-12-14T14:55:13;6.30;99.90
23081;DHT22;72373;50.562;8.498;2023-12-14T15:00:06;6.30;99.90
23081;DHT22;72373;50.562;8.498;2023-12-14T15:02:31;6.30;99.90
23081;DHT22;72373;50.562;8.498;2023-12-14T15:04:57;6.30;99.90
23081;DHT22;72373;50.562;8.498;2023-12-14T15:07:22;6.30;99.90
23081;DHT22;72373;50.562;8.498;2023-12-14T15:09:48;6.30;99.90
23081;DHT22;72373;50.562;8.498;2023-12-14T15:12:14;6.30;99.90
23081;DHT22;72373;50.562;8.498;2023-12-14T15:14:39;6.30;99.90
23081;DHT22;72373;50.562;8.498;2023-12-14T15:17:05;6.20;99.90
23081;DHT22;72373;50.562;8.498;2023-12-14T15:21:56;6.20;99.90
23081;DHT22;72373;50.562;8.498;2023-12-14T15:29:14;6.20;99.90
23081;DHT22;72373;50.562;8.498;2023-12-14T15:31:40;6.20;99.90
23081;DHT22;72373;50.562;8.498;2023-12-14T15:34:06;6.20;99.90
23081;DHT22;72373;50.562;8.498;2023-12-14T15:36:34;6.20;99.90
23081;DHT22;72373;50.562;8.498;2023-12-14T15:39:00;6.10;99.90
23081;DHT22;72373;50.562;8.498;2023-12-14T15:41:26;6.20;99.90
23081;DHT22;72373;50.562;8.498;2023-12-14T15:43:52;6.10;99.90
23081;DHT22;72373;50.562;8.498;2023-12-14T15:46:18;6.10;99.90
23081;DHT22;72373;50.562;8.498;2023-12-14T15:48:43;6.10;99.90
23081;DHT22;72373;50.562;8.498;2023-12-14T15:51:10;6.10;99.90
23081;DHT22;72373;50.562;8.498;2023-12-14T15:53:35;6.10;99.90
23081;DHT22;72373;50.562;8.498;2023-12-14T15:56:02;6.10;99.90
23081;DHT22;72373;50.562;8.498;2023-12-14T15:58:28;6.10;99.90
23081;DHT22;72373;50.562;8.498;2023-12-14T16:00:54;6.10;99.90
23081;DHT22;72373;50.562;8.498;2023-12-14T16:03:20;6.10;99.90
23081;DHT22;72373;50.562;8.498;2023-12-14T16:05:45;6.10;99.90
23081;DHT22;72373;50.562;8.498;2023-12-14T16:08:11;6.10;99.90
23081;DHT22;72373;50.562;8.498;2023-12-14T16:10:37;6.40;99.90
23081;DHT22;72373;50.562;8.498;2023-12-14T16:13:03;6.00;99.90
23081;DHT22;72373;50.562;8.498;2023-12-14T16:15:28;6.00;99.90